createdAt,value
2017-10-06T00:00:52.432Z,1005.9
2017-10-06T00:01:53.848Z,1005.9
2017-10-06T00:02:55.231Z,1006.0
2017-10-06T00:03:56.631Z,1006.0
2017-10-06T00:04:58.063Z,1006.0
2017-10-06T00:05:59.495Z,1006.0
2017-10-06T00:07:00.933Z,1006.0
2017-10-06T00:08:02.361Z,1006.0
2017-10-06T00:09:03.782Z,1006.0
2017-10-06T00:10:05.187Z,1006.0
2017-10-06T00:11:06.570Z,1006.0
2017-10-06T00:12:07.992Z,1006.0
2017-10-06T00:13:09.367Z,1006.1
2017-10-06T00:14:10.780Z,1006.1
2017-10-06T00:15:12.147Z,1006.1
2017-10-06T00:16:13.592Z,1006.0
2017-10-06T00:17:15.009Z,1006.1
2017-10-06T00:18:16.389Z,1006.1
2017-10-06T00:19:17.810Z,1006.0
2017-10-06T00:20:19.202Z,1006.0
2017-10-06T00:21:20.578Z,1006.1
2017-10-06T00:22:21.948Z,1006.1
2017-10-06T00:23:23.381Z,1006.0
2017-10-06T00:24:24.750Z,1006.1
2017-10-06T00:25:26.119Z,1006.0
2017-10-06T00:26:27.492Z,1006.1
2017-10-06T00:27:28.864Z,1006.0
2017-10-06T00:28:30.246Z,1006.0
2017-10-06T00:29:31.632Z,1006.0
2017-10-06T00:30:33.015Z,1006.1
2017-10-06T00:31:34.382Z,1006.1
2017-10-06T00:32:35.756Z,1006.1
2017-10-06T00:33:37.123Z,1006.1
2017-10-06T00:34:38.497Z,1006.1
2017-10-06T00:35:39.864Z,1006.1
2017-10-06T00:36:41.235Z,1006.1
2017-10-06T00:37:42.605Z,1006.1
2017-10-06T00:38:43.974Z,1006.1
2017-10-06T00:39:45.344Z,1006.1
2017-10-06T00:40:46.717Z,1006.1
2017-10-06T00:41:48.093Z,1006.1
2017-10-06T00:42:49.462Z,1006.0
2017-10-06T00:43:50.832Z,1006.1
2017-10-06T00:44:52.202Z,1006.1
2017-10-06T00:45:53.570Z,1006.1
2017-10-06T00:46:54.944Z,1006.1
2017-10-06T00:47:56.318Z,1006.1
2017-10-06T00:48:57.695Z,1006.1
2017-10-06T00:49:59.063Z,1006.1
2017-10-06T00:51:00.428Z,1006.2
2017-10-06T00:52:01.800Z,1006.1
2017-10-06T00:53:03.166Z,1006.1
2017-10-06T00:54:04.537Z,1006.1
2017-10-06T00:55:05.905Z,1006.1
2017-10-06T00:56:07.282Z,1006.1
2017-10-06T00:57:08.667Z,1006.2
2017-10-06T00:58:10.043Z,1006.2
2017-10-06T00:59:11.421Z,1006.2
2017-10-06T01:00:12.885Z,1006.1
2017-10-06T01:01:14.248Z,1006.1
2017-10-06T01:02:15.645Z,1006.1
2017-10-06T01:03:17.043Z,1006.1
2017-10-06T01:04:18.452Z,1006.2
2017-10-06T01:05:19.830Z,1006.2
2017-10-06T01:06:21.210Z,1006.2
2017-10-06T01:07:22.625Z,1006.2
2017-10-06T01:08:24.020Z,1006.1
2017-10-06T01:09:25.396Z,1006.1
2017-10-06T01:10:26.816Z,1006.1
2017-10-06T01:11:28.257Z,1006.0
2017-10-06T01:12:29.626Z,1006.1
2017-10-06T01:13:31.004Z,1006.1
2017-10-06T01:14:32.372Z,1006.1
2017-10-06T01:15:33.749Z,1006.1
2017-10-06T01:16:35.132Z,1006.1
2017-10-06T01:17:36.497Z,1006.0
2017-10-06T01:18:37.867Z,1005.9
2017-10-06T01:19:39.244Z,1006.0
2017-10-06T01:20:40.610Z,1005.9
2017-10-06T01:21:42.000Z,1005.9
2017-10-06T01:22:43.368Z,1005.9
2017-10-06T01:23:44.802Z,1005.9
2017-10-06T01:24:46.200Z,1005.9
2017-10-06T01:25:47.558Z,1005.9
2017-10-06T01:26:48.991Z,1005.9
2017-10-06T01:27:50.402Z,1005.9
2017-10-06T01:28:51.770Z,1005.9
2017-10-06T01:29:53.158Z,1006.0
2017-10-06T01:30:54.529Z,1005.9
2017-10-06T01:31:55.904Z,1005.9
2017-10-06T01:32:57.274Z,1005.9
2017-10-06T01:33:58.660Z,1005.9
2017-10-06T01:35:00.042Z,1005.9
2017-10-06T01:36:01.438Z,1005.9
2017-10-06T01:37:02.813Z,1005.8
2017-10-06T01:38:04.181Z,1005.9
2017-10-06T01:39:05.549Z,1005.8
2017-10-06T01:40:06.934Z,1005.9
2017-10-06T01:41:08.340Z,1005.8
2017-10-06T01:42:09.713Z,1005.9
2017-10-06T01:43:11.080Z,1005.8
2017-10-06T01:44:12.455Z,1005.8
2017-10-06T01:45:13.830Z,1005.7
2017-10-06T01:46:15.194Z,1005.8
2017-10-06T01:47:16.572Z,1005.8
2017-10-06T01:48:17.945Z,1005.7
2017-10-06T01:49:19.314Z,1005.8
2017-10-06T01:50:20.686Z,1005.8
2017-10-06T01:51:22.060Z,1005.8
2017-10-06T01:52:23.435Z,1005.8
2017-10-06T01:53:24.808Z,1005.8
2017-10-06T01:54:26.179Z,1005.8
2017-10-06T01:55:27.544Z,1005.8
2017-10-06T01:56:28.925Z,1005.8
2017-10-06T01:57:30.298Z,1005.9
2017-10-06T01:58:31.674Z,1005.8
2017-10-06T01:59:33.043Z,1005.8
2017-10-06T02:00:34.416Z,1005.8
2017-10-06T02:01:35.784Z,1005.9
2017-10-06T02:02:37.156Z,1005.8
2017-10-06T02:03:38.542Z,1005.8
2017-10-06T02:04:39.894Z,1005.8
2017-10-06T02:05:41.274Z,1005.8
2017-10-06T02:06:42.643Z,1005.8
2017-10-06T02:07:44.063Z,1005.8
2017-10-06T02:08:45.479Z,1005.7
2017-10-06T02:09:46.904Z,1005.8
2017-10-06T02:10:48.315Z,1005.8
2017-10-06T02:11:49.698Z,1005.8
2017-10-06T02:12:51.103Z,1005.8
2017-10-06T02:13:52.491Z,1005.8
2017-10-06T02:14:53.896Z,1005.8
2017-10-06T02:15:55.267Z,1005.8
2017-10-06T02:16:56.642Z,1005.8
2017-10-06T02:17:58.019Z,1005.8
2017-10-06T02:18:59.394Z,1005.8
2017-10-06T02:20:00.763Z,1005.8
2017-10-06T02:21:02.133Z,1005.8
2017-10-06T02:22:03.507Z,1005.8
2017-10-06T02:23:04.875Z,1005.8
2017-10-06T02:24:06.245Z,1005.8
2017-10-06T02:25:07.621Z,1005.8
2017-10-06T02:26:09.014Z,1005.8
2017-10-06T02:27:10.393Z,1005.8
2017-10-06T02:28:11.762Z,1005.8
2017-10-06T02:29:13.133Z,1005.8
2017-10-06T02:30:14.503Z,1005.8
2017-10-06T02:31:15.874Z,1005.8
2017-10-06T02:32:17.306Z,1005.8
2017-10-06T02:33:18.719Z,1005.8
2017-10-06T02:34:20.139Z,1005.8
2017-10-06T02:35:21.547Z,1005.8
2017-10-06T02:36:22.928Z,1005.8
2017-10-06T02:37:24.326Z,1005.8
2017-10-06T02:38:25.718Z,1005.8
2017-10-06T02:39:27.140Z,1005.8
2017-10-06T02:40:28.570Z,1005.8
2017-10-06T02:41:29.969Z,1005.8
2017-10-06T02:42:31.353Z,1005.8
2017-10-06T02:43:32.780Z,1005.7
2017-10-06T02:44:34.142Z,1005.8
2017-10-06T02:45:35.510Z,1005.8
2017-10-06T02:46:36.876Z,1005.7
2017-10-06T02:47:38.291Z,1005.8
2017-10-06T02:48:39.663Z,1005.8
2017-10-06T02:49:41.068Z,1005.8
2017-10-06T02:50:42.470Z,1005.8
2017-10-06T02:51:43.855Z,1005.8
2017-10-06T02:52:45.247Z,1005.8
2017-10-06T02:53:46.664Z,1005.7
2017-10-06T02:54:48.033Z,1005.7
2017-10-06T02:55:49.468Z,1005.8
2017-10-06T02:56:50.842Z,1005.7
2017-10-06T02:57:52.208Z,1005.7
2017-10-06T02:58:53.612Z,1005.7
2017-10-06T02:59:54.992Z,1005.7
2017-10-06T03:00:56.389Z,1005.7
2017-10-06T03:01:57.805Z,1005.7
2017-10-06T03:02:59.212Z,1005.7
2017-10-06T03:04:00.589Z,1005.7
2017-10-06T03:05:01.970Z,1005.7
2017-10-06T03:06:03.407Z,1005.7
2017-10-06T03:07:04.783Z,1005.7
2017-10-06T03:08:06.162Z,1005.7
2017-10-06T03:09:07.537Z,1005.7
2017-10-06T03:10:08.930Z,1005.8
2017-10-06T03:11:10.364Z,1005.8
2017-10-06T03:12:11.762Z,1005.7
2017-10-06T03:13:13.189Z,1005.7
2017-10-06T03:14:14.643Z,1005.7
2017-10-06T03:15:16.025Z,1005.7
2017-10-06T03:16:17.416Z,1005.7
2017-10-06T03:17:18.822Z,1005.7
2017-10-06T03:18:20.267Z,1005.8
2017-10-06T03:19:21.695Z,1005.7
2017-10-06T03:20:23.115Z,1005.7
2017-10-06T03:21:24.537Z,1005.7
2017-10-06T03:22:25.918Z,1005.8
2017-10-06T03:23:27.397Z,1005.7
2017-10-06T03:24:28.881Z,1005.7
2017-10-06T03:25:30.297Z,1005.7
2017-10-06T03:26:31.693Z,1005.7
2017-10-06T03:27:33.061Z,1005.7
2017-10-06T03:28:34.436Z,1005.8
2017-10-06T03:29:35.832Z,1005.8
2017-10-06T03:30:37.187Z,1005.8
2017-10-06T03:31:38.560Z,1005.7
2017-10-06T03:32:39.930Z,1005.8
2017-10-06T03:33:41.304Z,1005.8
2017-10-06T03:34:42.673Z,1005.8
2017-10-06T03:35:44.042Z,1005.8
2017-10-06T03:36:45.411Z,1005.8
2017-10-06T03:37:46.784Z,1005.8
2017-10-06T03:38:48.165Z,1005.8
2017-10-06T03:39:49.538Z,1005.8
2017-10-06T03:40:50.906Z,1005.8
2017-10-06T03:41:52.279Z,1005.8
2017-10-06T03:42:53.648Z,1005.8
2017-10-06T03:43:55.018Z,1005.8
2017-10-06T03:44:56.389Z,1005.8
2017-10-06T03:45:57.761Z,1005.8
2017-10-06T03:46:59.141Z,1005.8
2017-10-06T03:48:00.509Z,1005.8
2017-10-06T03:49:01.883Z,1005.8
2017-10-06T03:50:03.248Z,1005.9
2017-10-06T03:51:04.618Z,1005.9
2017-10-06T03:52:05.990Z,1005.8
2017-10-06T03:53:07.360Z,1005.8
2017-10-06T03:54:08.730Z,1005.8
2017-10-06T03:55:10.100Z,1005.8
2017-10-06T03:56:11.492Z,1005.9
2017-10-06T03:57:12.846Z,1005.8
2017-10-06T03:58:14.223Z,1005.9
2017-10-06T03:59:15.599Z,1005.9
2017-10-06T04:00:16.959Z,1005.9
2017-10-06T04:01:18.332Z,1005.9
2017-10-06T04:02:19.702Z,1005.8
2017-10-06T04:03:21.087Z,1005.9
2017-10-06T04:04:22.462Z,1005.9
2017-10-06T04:05:23.919Z,1005.9
2017-10-06T04:06:25.350Z,1005.9
2017-10-06T04:07:26.778Z,1005.9
2017-10-06T04:08:28.187Z,1005.9
2017-10-06T04:09:29.629Z,1005.9
2017-10-06T04:10:31.003Z,1005.9
2017-10-06T04:11:32.402Z,1005.8
2017-10-06T04:12:33.824Z,1005.8
2017-10-06T04:13:35.225Z,1005.8
2017-10-06T04:14:36.659Z,1005.8
2017-10-06T04:15:38.054Z,1005.8
2017-10-06T04:16:39.447Z,1005.8
2017-10-06T04:17:40.849Z,1005.8
2017-10-06T04:18:42.237Z,1005.8
2017-10-06T04:19:43.650Z,1005.8
2017-10-06T04:20:45.075Z,1005.8
2017-10-06T04:21:46.489Z,1005.8
2017-10-06T04:22:47.915Z,1005.8
2017-10-06T04:23:49.285Z,1005.8
2017-10-06T04:24:50.692Z,1005.9
2017-10-06T04:25:52.064Z,1005.8
2017-10-06T04:26:53.485Z,1005.8
2017-10-06T04:27:54.911Z,1005.8
2017-10-06T04:28:56.562Z,1005.8
2017-10-06T04:29:57.930Z,1005.8
2017-10-06T04:30:59.328Z,1005.8
2017-10-06T04:32:00.696Z,1005.8
2017-10-06T04:33:02.063Z,1005.8
2017-10-06T04:34:03.479Z,1005.8
2017-10-06T04:35:04.857Z,1005.8
2017-10-06T04:36:06.227Z,1005.8
2017-10-06T04:37:07.597Z,1005.8
2017-10-06T04:38:09.092Z,1005.8
2017-10-06T04:39:10.464Z,1005.8
2017-10-06T04:40:11.844Z,1005.8
2017-10-06T04:41:13.274Z,1005.8
2017-10-06T04:42:14.712Z,1005.8
2017-10-06T04:43:16.130Z,1005.8
2017-10-06T04:44:17.520Z,1005.8
2017-10-06T04:45:18.953Z,1005.8
2017-10-06T04:46:20.363Z,1005.8
2017-10-06T04:47:21.734Z,1005.8
2017-10-06T04:48:23.170Z,1005.8
2017-10-06T04:49:24.630Z,1005.8
2017-10-06T04:50:26.052Z,1005.8
2017-10-06T04:51:27.439Z,1005.8
2017-10-06T04:52:28.855Z,1005.8
2017-10-06T04:53:30.218Z,1005.8
2017-10-06T04:54:31.644Z,1005.8
2017-10-06T04:55:33.059Z,1005.8
2017-10-06T04:56:34.502Z,1005.8
2017-10-06T04:57:35.901Z,1005.8
2017-10-06T04:58:37.329Z,1005.8
2017-10-06T04:59:38.740Z,1005.8
2017-10-06T05:00:40.140Z,1005.8
2017-10-06T05:01:41.546Z,1005.8
2017-10-06T05:02:42.939Z,1005.8
2017-10-06T05:03:44.412Z,1005.8
2017-10-06T05:04:45.796Z,1005.8
2017-10-06T05:05:47.207Z,1005.8
2017-10-06T05:06:48.630Z,1005.9
2017-10-06T05:07:50.026Z,1005.9
2017-10-06T05:08:51.405Z,1005.9
2017-10-06T05:09:52.841Z,1005.8
2017-10-06T05:10:54.290Z,1005.8
2017-10-06T05:11:55.672Z,1005.8
2017-10-06T05:12:57.095Z,1005.8
2017-10-06T05:13:58.492Z,1005.8
2017-10-06T05:14:59.889Z,1005.8
2017-10-06T05:16:01.317Z,1005.8
2017-10-06T05:17:02.694Z,1005.8
2017-10-06T05:18:04.097Z,1005.8
2017-10-06T05:19:05.512Z,1005.8
2017-10-06T05:20:06.921Z,1005.8
2017-10-06T05:21:08.343Z,1005.8
2017-10-06T05:22:09.721Z,1005.8
2017-10-06T05:23:11.134Z,1005.8
2017-10-06T05:24:12.561Z,1005.8
2017-10-06T05:25:13.984Z,1005.9
2017-10-06T05:26:15.373Z,1005.9
2017-10-06T05:27:16.799Z,1005.9
2017-10-06T05:28:18.157Z,1005.8
2017-10-06T05:29:19.571Z,1005.9
2017-10-06T05:30:20.973Z,1005.9
2017-10-06T05:31:22.405Z,1005.9
2017-10-06T05:32:23.813Z,1005.9
2017-10-06T05:33:25.210Z,1005.9
2017-10-06T05:34:26.615Z,1005.9
2017-10-06T05:35:28.024Z,1005.9
2017-10-06T05:36:29.430Z,1006.0
2017-10-06T05:37:30.813Z,1005.9
2017-10-06T05:38:32.250Z,1005.9
2017-10-06T05:39:33.645Z,1005.9
2017-10-06T05:40:35.082Z,1005.9
2017-10-06T05:41:36.515Z,1005.9
2017-10-06T05:42:37.897Z,1005.9
2017-10-06T05:43:39.331Z,1005.9
2017-10-06T05:44:40.702Z,1005.9
2017-10-06T05:45:42.112Z,1005.9
2017-10-06T05:46:43.510Z,1005.9
2017-10-06T05:47:44.926Z,1005.9
2017-10-06T05:48:46.340Z,1005.9
2017-10-06T05:49:47.776Z,1005.9
2017-10-06T05:50:49.241Z,1005.9
2017-10-06T05:51:50.632Z,1006.0
2017-10-06T05:52:52.047Z,1006.0
2017-10-06T05:53:53.426Z,1005.9
2017-10-06T05:54:54.863Z,1005.9
2017-10-06T05:55:56.274Z,1005.9
2017-10-06T05:56:57.666Z,1006.0
2017-10-06T05:57:59.141Z,1005.9
2017-10-06T05:59:00.510Z,1005.9
2017-10-06T06:00:01.927Z,1005.9
2017-10-06T06:01:03.325Z,1005.9
2017-10-06T06:02:04.758Z,1006.0
2017-10-06T06:03:06.139Z,1005.9
2017-10-06T06:04:07.574Z,1006.0
2017-10-06T06:05:08.981Z,1006.0
2017-10-06T06:06:10.389Z,1006.0
2017-10-06T06:07:11.794Z,1006.0
2017-10-06T06:08:13.165Z,1006.0
2017-10-06T06:09:14.569Z,1006.1
2017-10-06T06:10:15.994Z,1006.1
2017-10-06T06:11:17.379Z,1006.0
2017-10-06T06:12:18.761Z,1006.1
2017-10-06T06:13:20.172Z,1006.1
2017-10-06T06:14:21.559Z,1006.1
2017-10-06T06:15:22.998Z,1006.0
2017-10-06T06:16:24.463Z,1006.1
2017-10-06T06:17:25.874Z,1006.1
2017-10-06T06:18:27.245Z,1006.1
2017-10-06T06:19:28.620Z,1006.1
2017-10-06T06:20:30.072Z,1006.1
2017-10-06T06:21:31.493Z,1006.1
2017-10-06T06:22:32.906Z,1006.1
2017-10-06T06:23:34.387Z,1006.1
2017-10-06T06:24:35.773Z,1006.1
2017-10-06T06:25:37.221Z,1006.1
2017-10-06T06:26:38.601Z,1006.1
2017-10-06T06:27:40.065Z,1006.1
2017-10-06T06:28:41.503Z,1006.1
2017-10-06T06:29:42.882Z,1006.1
2017-10-06T06:30:44.342Z,1006.1
2017-10-06T06:31:45.753Z,1006.2
2017-10-06T06:32:47.174Z,1006.2
2017-10-06T06:33:48.563Z,1006.2
2017-10-06T06:34:50.011Z,1006.2
2017-10-06T06:35:51.407Z,1006.3
2017-10-06T06:36:52.826Z,1006.2
2017-10-06T06:37:54.276Z,1006.2
2017-10-06T06:38:55.706Z,1006.3
2017-10-06T06:39:57.086Z,1006.3
2017-10-06T06:40:58.502Z,1006.2
2017-10-06T06:41:59.892Z,1006.2
2017-10-06T06:43:01.318Z,1006.2
2017-10-06T06:44:02.738Z,1006.3
2017-10-06T06:45:04.164Z,1006.3
2017-10-06T06:46:05.607Z,1006.3
2017-10-06T06:47:07.009Z,1006.2
2017-10-06T06:48:08.397Z,1006.2
2017-10-06T06:49:09.816Z,1006.3
2017-10-06T06:50:11.225Z,1006.4
2017-10-06T06:51:12.662Z,1006.3
2017-10-06T06:52:14.112Z,1006.3
2017-10-06T06:53:15.575Z,1006.4
2017-10-06T06:54:16.970Z,1006.4
2017-10-06T06:55:18.357Z,1006.5
2017-10-06T06:56:19.764Z,1006.4
2017-10-06T06:57:21.166Z,1006.4
2017-10-06T06:58:22.612Z,1006.4
2017-10-06T06:59:23.990Z,1006.4
2017-10-06T07:00:25.381Z,1006.4
2017-10-06T07:01:26.757Z,1006.3
2017-10-06T07:02:28.132Z,1006.3
2017-10-06T07:03:29.516Z,1006.3
2017-10-06T07:04:30.889Z,1006.3
2017-10-06T07:05:32.265Z,1006.3
2017-10-06T07:06:33.658Z,1006.4
2017-10-06T07:07:35.044Z,1006.4
2017-10-06T07:08:36.415Z,1006.4
2017-10-06T07:09:37.791Z,1006.4
2017-10-06T07:10:39.170Z,1006.4
2017-10-06T07:11:40.546Z,1006.3
2017-10-06T07:12:41.927Z,1006.4
2017-10-06T07:13:43.303Z,1006.4
2017-10-06T07:14:44.686Z,1006.4
2017-10-06T07:15:46.062Z,1006.5
2017-10-06T07:16:47.442Z,1006.5
2017-10-06T07:17:48.819Z,1006.6
2017-10-06T07:18:50.200Z,1006.7
2017-10-06T07:19:51.578Z,1006.6
2017-10-06T07:20:52.959Z,1006.6
2017-10-06T07:21:54.350Z,1006.6
2017-10-06T07:22:55.731Z,1006.6
2017-10-06T07:23:57.101Z,1006.8
2017-10-06T07:24:58.484Z,1006.9
2017-10-06T07:25:59.892Z,1006.8
2017-10-06T07:27:01.315Z,1006.8
2017-10-06T07:28:02.709Z,1006.8
2017-10-06T07:29:04.190Z,1006.9
2017-10-06T07:30:05.615Z,1007.0
2017-10-06T07:31:07.041Z,1007.0
2017-10-06T07:32:08.440Z,1006.9
2017-10-06T07:33:09.839Z,1006.8
2017-10-06T07:34:11.269Z,1006.8
2017-10-06T07:35:12.682Z,1006.8
2017-10-06T07:36:14.129Z,1006.8
2017-10-06T07:37:15.548Z,1006.9
2017-10-06T07:38:16.945Z,1006.9
2017-10-06T07:39:18.357Z,1006.9
2017-10-06T07:40:19.782Z,1007.0
2017-10-06T07:41:21.158Z,1007.0
2017-10-06T07:42:22.540Z,1007.0
2017-10-06T07:43:23.955Z,1007.0
2017-10-06T07:44:25.321Z,1007.0
2017-10-06T07:45:26.699Z,1006.9
2017-10-06T07:46:28.082Z,1006.9
2017-10-06T07:47:29.486Z,1007.0
2017-10-06T07:48:30.871Z,1007.0
2017-10-06T07:49:32.254Z,1006.9
2017-10-06T07:50:33.632Z,1006.9
2017-10-06T07:51:35.045Z,1006.8
2017-10-06T07:52:36.426Z,1006.9
2017-10-06T07:53:37.809Z,1006.9
2017-10-06T07:54:39.191Z,1006.9
2017-10-06T07:55:40.590Z,1006.9
2017-10-06T07:56:43.118Z,1007.0
2017-10-06T07:57:44.520Z,1006.8
2017-10-06T07:58:45.933Z,1007.0
2017-10-06T07:59:47.324Z,1007.0
2017-10-06T08:00:48.794Z,1007.0
2017-10-06T08:01:50.226Z,1007.1
2017-10-06T08:02:51.635Z,1007.0
2017-10-06T08:03:53.022Z,1007.1
2017-10-06T08:04:54.484Z,1007.0
2017-10-06T08:05:55.946Z,1007.0
2017-10-06T08:06:57.325Z,1007.0
2017-10-06T08:07:58.775Z,1007.0
2017-10-06T08:09:00.205Z,1007.0
2017-10-06T08:10:01.632Z,1007.0
2017-10-06T08:11:03.019Z,1006.9
2017-10-06T08:12:04.466Z,1007.0
2017-10-06T08:13:05.903Z,1007.0
2017-10-06T08:14:07.351Z,1006.9
2017-10-06T08:15:08.764Z,1006.9
2017-10-06T08:16:10.162Z,1007.0
2017-10-06T08:17:11.551Z,1007.1
2017-10-06T08:18:12.933Z,1007.2
2017-10-06T08:19:14.378Z,1007.0
2017-10-06T08:20:15.817Z,1007.1
2017-10-06T08:21:17.181Z,1007.1
2017-10-06T08:22:18.575Z,1007.1
2017-10-06T08:23:19.979Z,1007.1
2017-10-06T08:24:21.377Z,1007.1
2017-10-06T08:25:22.862Z,1007.0
2017-10-06T08:26:24.360Z,1007.0
2017-10-06T08:27:25.779Z,1007.1
2017-10-06T08:28:27.208Z,1007.1
2017-10-06T08:29:28.598Z,1007.2
2017-10-06T08:30:29.993Z,1007.2
2017-10-06T08:31:31.404Z,1007.2
2017-10-06T08:32:32.836Z,1007.2
2017-10-06T08:33:34.291Z,1007.2
2017-10-06T08:34:35.718Z,1007.1
2017-10-06T08:35:37.121Z,1007.1
2017-10-06T08:36:38.514Z,1007.0
2017-10-06T08:37:40.010Z,1007.0
2017-10-06T08:38:41.408Z,1007.1
2017-10-06T08:39:42.805Z,1007.0
2017-10-06T08:40:44.192Z,1007.1
2017-10-06T08:41:45.571Z,1007.1
2017-10-06T08:42:46.943Z,1007.2
2017-10-06T08:43:48.322Z,1007.1
2017-10-06T08:44:49.738Z,1007.1
2017-10-06T08:45:51.094Z,1007.1
2017-10-06T08:46:52.478Z,1007.2
2017-10-06T08:47:53.870Z,1007.1
2017-10-06T08:48:55.317Z,1007.1
2017-10-06T08:49:56.714Z,1007.1
2017-10-06T08:50:58.093Z,1007.2
2017-10-06T08:51:59.538Z,1007.2
2017-10-06T08:53:00.918Z,1007.3
2017-10-06T08:54:02.312Z,1007.3
2017-10-06T08:55:03.737Z,1007.4
2017-10-06T08:56:05.180Z,1007.4
2017-10-06T08:57:06.560Z,1007.5
2017-10-06T08:58:07.968Z,1007.5
2017-10-06T08:59:09.381Z,1007.5
2017-10-06T09:00:10.772Z,1007.5
2017-10-06T09:01:12.190Z,1007.4
2017-10-06T09:02:13.579Z,1007.5
2017-10-06T09:03:15.016Z,1007.5
2017-10-06T09:04:16.437Z,1007.5
2017-10-06T09:05:57.821Z,1007.5
2017-10-06T09:06:59.197Z,1007.5
2017-10-06T09:08:00.580Z,1007.6
2017-10-06T09:09:01.949Z,1007.6
2017-10-06T09:10:03.331Z,1007.6
2017-10-06T09:11:04.707Z,1007.6
2017-10-06T09:12:06.083Z,1007.6
2017-10-06T09:13:07.462Z,1007.6
2017-10-06T09:14:08.837Z,1007.7
2017-10-06T09:15:10.226Z,1007.7
2017-10-06T09:16:11.599Z,1007.8
2017-10-06T09:17:12.978Z,1007.7
2017-10-06T09:18:14.361Z,1007.8
2017-10-06T09:19:56.733Z,1007.8
2017-10-06T09:20:58.114Z,1007.7
2017-10-06T09:21:59.494Z,1007.8
2017-10-06T09:23:00.874Z,1007.7
2017-10-06T09:24:02.249Z,1007.8
2017-10-06T09:25:03.624Z,1007.8
2017-10-06T09:26:05.010Z,1007.9
2017-10-06T09:27:06.386Z,1007.9
2017-10-06T09:28:07.767Z,1007.9
2017-10-06T09:29:09.142Z,1007.9
2017-10-06T09:30:10.535Z,1007.9
2017-10-06T09:31:11.912Z,1007.9
2017-10-06T09:32:13.297Z,1008.0
2017-10-06T09:33:14.692Z,1008.0
2017-10-06T09:34:16.065Z,1008.2
2017-10-06T09:35:17.470Z,1008.1
2017-10-06T09:36:18.845Z,1008.1
2017-10-06T09:37:20.226Z,1008.1
2017-10-06T09:38:21.603Z,1008.1
2017-10-06T09:39:22.989Z,1008.0
2017-10-06T09:40:24.373Z,1008.0
2017-10-06T09:41:25.744Z,1008.0
2017-10-06T09:42:27.120Z,1008.0
2017-10-06T09:43:28.494Z,1008.1
2017-10-06T09:44:29.873Z,1008.0
2017-10-06T09:45:31.251Z,1008.0
2017-10-06T09:46:32.627Z,1008.1
2017-10-06T09:47:34.004Z,1008.1
2017-10-06T09:48:35.388Z,1008.1
2017-10-06T09:49:36.761Z,1008.1
2017-10-06T09:50:38.136Z,1008.2
2017-10-06T09:51:39.514Z,1008.2
2017-10-06T09:52:40.892Z,1008.2
2017-10-06T09:53:42.268Z,1008.2
2017-10-06T09:54:43.645Z,1008.2
2017-10-06T09:55:45.024Z,1008.2
2017-10-06T09:56:46.401Z,1008.1
2017-10-06T09:57:47.776Z,1008.1
2017-10-06T09:58:49.152Z,1008.1
2017-10-06T09:59:50.535Z,1008.1
2017-10-06T10:00:51.904Z,1008.1
2017-10-06T10:01:53.283Z,1008.1
2017-10-06T10:02:54.659Z,1008.1
2017-10-06T10:03:56.035Z,1008.2
2017-10-06T10:04:57.408Z,1008.2
2017-10-06T10:05:58.785Z,1008.2
2017-10-06T10:07:00.161Z,1008.2
2017-10-06T10:08:01.538Z,1008.2
2017-10-06T10:09:02.915Z,1008.2
2017-10-06T10:10:04.284Z,1008.3
2017-10-06T10:11:05.667Z,1008.3
2017-10-06T10:12:07.043Z,1008.4
2017-10-06T10:13:08.422Z,1008.3
2017-10-06T10:14:09.801Z,1008.3
2017-10-06T10:15:11.186Z,1008.4
2017-10-06T10:16:12.565Z,1008.4
2017-10-06T10:17:13.941Z,1008.5
2017-10-06T10:18:15.315Z,1008.4
2017-10-06T10:19:16.691Z,1008.5
2017-10-06T10:20:18.066Z,1008.5
2017-10-06T10:21:19.444Z,1008.5
2017-10-06T10:22:20.820Z,1008.5
2017-10-06T10:23:22.196Z,1008.5
2017-10-06T10:24:23.579Z,1008.6
2017-10-06T10:25:24.954Z,1008.6
2017-10-06T10:26:26.330Z,1008.6
2017-10-06T10:27:27.706Z,1008.6
2017-10-06T10:28:29.082Z,1008.6
2017-10-06T10:29:30.457Z,1008.7
2017-10-06T10:30:31.832Z,1008.7
2017-10-06T10:31:33.210Z,1008.6
2017-10-06T10:32:34.593Z,1008.6
2017-10-06T10:33:35.973Z,1008.7
2017-10-06T10:34:37.348Z,1008.6
2017-10-06T10:35:38.729Z,1008.7
2017-10-06T10:36:40.100Z,1008.7
2017-10-06T10:37:41.475Z,1008.6
2017-10-06T10:38:42.861Z,1008.7
2017-10-06T10:39:44.236Z,1008.7
2017-10-06T10:40:45.613Z,1008.7
2017-10-06T10:41:46.985Z,1008.7
2017-10-06T10:42:48.360Z,1008.7
2017-10-06T10:43:49.737Z,1008.7
2017-10-06T10:44:51.124Z,1008.7
2017-10-06T10:45:52.492Z,1008.8
2017-10-06T10:46:53.870Z,1008.9
2017-10-06T10:47:55.253Z,1008.8
2017-10-06T10:48:56.628Z,1008.9
2017-10-06T10:49:58.008Z,1008.9
2017-10-06T10:50:59.386Z,1008.9
2017-10-06T10:52:00.759Z,1008.9
2017-10-06T10:53:02.141Z,1008.9
2017-10-06T10:54:03.517Z,1009.0
2017-10-06T10:55:04.893Z,1009.0
2017-10-06T10:56:06.273Z,1008.9
2017-10-06T10:57:07.651Z,1009.0
2017-10-06T10:58:09.028Z,1009.0
2017-10-06T10:59:10.410Z,1009.0
2017-10-06T11:00:11.785Z,1009.0
2017-10-06T11:01:13.163Z,1008.9
2017-10-06T11:02:14.538Z,1009.0
2017-10-06T11:03:15.915Z,1009.0
2017-10-06T11:04:17.294Z,1009.0
2017-10-06T11:05:18.678Z,1009.0
2017-10-06T11:06:20.174Z,1009.0
2017-10-06T11:07:21.552Z,1009.1
2017-10-06T11:08:22.929Z,1009.0
2017-10-06T11:09:24.306Z,1009.1
2017-10-06T11:10:25.685Z,1009.0
2017-10-06T11:11:27.067Z,1009.1
2017-10-06T11:12:28.440Z,1009.0
2017-10-06T11:13:29.852Z,1009.0
2017-10-06T11:14:31.224Z,1008.9
2017-10-06T11:15:32.604Z,1009.0
2017-10-06T11:16:33.983Z,1008.9
2017-10-06T11:17:35.372Z,1008.9
2017-10-06T11:18:36.769Z,1008.9
2017-10-06T11:19:38.162Z,1009.0
2017-10-06T11:20:39.665Z,1009.1
2017-10-06T11:21:41.035Z,1009.2
2017-10-06T11:22:42.417Z,1009.2
2017-10-06T11:23:43.819Z,1009.1
2017-10-06T11:24:45.235Z,1009.2
2017-10-06T11:25:46.645Z,1009.1
2017-10-06T11:26:48.073Z,1009.0
2017-10-06T11:27:49.466Z,1008.9
2017-10-06T11:28:50.893Z,1009.0
2017-10-06T11:29:52.271Z,1009.0
2017-10-06T11:30:53.734Z,1009.1
2017-10-06T11:31:55.198Z,1009.0
2017-10-06T11:32:56.586Z,1009.1
2017-10-06T11:33:57.969Z,1009.2
2017-10-06T11:34:59.360Z,1009.2
2017-10-06T11:36:00.765Z,1009.2
2017-10-06T11:37:02.164Z,1009.1
2017-10-06T11:38:03.550Z,1009.1
2017-10-06T11:39:05.103Z,1009.1
2017-10-06T11:40:06.502Z,1009.1
2017-10-06T11:41:07.884Z,1009.1
2017-10-06T11:42:09.266Z,1009.1
2017-10-06T11:43:10.648Z,1009.1
2017-10-06T11:44:12.032Z,1009.1
2017-10-06T11:45:13.411Z,1009.2
2017-10-06T11:46:14.891Z,1009.2
2017-10-06T11:47:16.258Z,1009.2
2017-10-06T11:48:17.638Z,1009.2
2017-10-06T11:49:19.031Z,1009.2
2017-10-06T11:50:20.507Z,1009.3
2017-10-06T11:51:21.897Z,1009.2
2017-10-06T11:52:23.277Z,1009.2
2017-10-06T11:53:24.667Z,1009.2
2017-10-06T11:54:26.054Z,1009.4
2017-10-06T11:55:27.491Z,1009.3
2017-10-06T11:56:28.862Z,1009.2
2017-10-06T11:57:30.283Z,1009.4
2017-10-06T11:58:31.669Z,1009.3
2017-10-06T11:59:33.045Z,1009.2
2017-10-06T12:00:34.427Z,1009.2
2017-10-06T12:01:35.819Z,1009.3
2017-10-06T12:02:37.252Z,1009.2
2017-10-06T12:03:38.652Z,1009.3
2017-10-06T12:04:40.167Z,1009.2
2017-10-06T12:05:41.600Z,1009.2
2017-10-06T12:06:42.995Z,1009.2
2017-10-06T12:07:44.418Z,1009.3
2017-10-06T12:08:45.932Z,1009.3
2017-10-06T12:09:47.367Z,1009.3
2017-10-06T12:10:48.802Z,1009.4
2017-10-06T12:11:50.291Z,1009.6
2017-10-06T12:12:51.687Z,1009.3
2017-10-06T12:13:53.074Z,1009.1
2017-10-06T12:14:54.477Z,1009.3
2017-10-06T12:15:55.922Z,1009.1
2017-10-06T12:16:57.307Z,1009.3
2017-10-06T12:17:58.689Z,1009.4
2017-10-06T12:19:00.192Z,1009.4
2017-10-06T12:20:01.674Z,1009.4
2017-10-06T12:21:03.087Z,1009.2
2017-10-06T12:22:04.488Z,1009.3
2017-10-06T12:23:05.942Z,1009.3
2017-10-06T12:24:07.351Z,1009.4
2017-10-06T12:25:08.835Z,1009.2
2017-10-06T12:26:10.334Z,1009.4
2017-10-06T12:27:11.725Z,1009.3
2017-10-06T12:28:13.180Z,1009.4
2017-10-06T12:29:14.630Z,1009.5
2017-10-06T12:30:16.124Z,1009.4
2017-10-06T12:31:17.641Z,1009.4
2017-10-06T12:32:19.140Z,1009.4
2017-10-06T12:33:20.685Z,1009.3
2017-10-06T12:34:22.081Z,1009.3
2017-10-06T12:36:04.469Z,1009.4
2017-10-06T12:37:05.880Z,1009.4
2017-10-06T12:38:07.269Z,1009.5
2017-10-06T12:39:08.653Z,1009.3
2017-10-06T12:40:10.071Z,1009.2
2017-10-06T12:41:11.453Z,1009.3
2017-10-06T12:42:12.844Z,1009.3
2017-10-06T12:43:14.255Z,1009.2
2017-10-06T12:44:15.674Z,1009.3
2017-10-06T12:45:17.168Z,1009.5
2017-10-06T12:46:18.555Z,1009.4
2017-10-06T12:47:19.965Z,1009.3
2017-10-06T12:48:21.348Z,1009.4